sensor_id;sensor_type;location;lat;lon;timestamp;P1;durP1;ratioP1;P2;durP2;ratioP2
2866;SDS011;1441;48.886;8.728;2023-04-15T00:01:57;5.10;;;1.97;;
2866;SDS011;1441;48.886;8.728;2023-04-15T00:04:23;1.60;;;1.50;;
2866;SDS011;1441;48.886;8.728;2023-04-15T00:06:52;2.80;;;1.87;;
2866;SDS011;1441;48.886;8.728;2023-04-15T00:09:18;3.83;;;1.60;;
2866;SDS011;1441;48.886;8.728;2023-04-15T00:11:44;2.50;;;1.87;;
2866;SDS011;1441;48.886;8.728;2023-04-15T00:14:11;5.07;;;2.17;;
2866;SDS011;1441;48.886;8.728;2023-04-15T00:16:37;3.20;;;2.10;;
2866;SDS011;1441;48.886;8.728;2023-04-15T00:19:03;5.33;;;2.40;;
2866;SDS011;1441;48.886;8.728;2023-04-15T00:21:29;4.67;;;2.13;;
2866;SDS011;1441;48.886;8.728;2023-04-15T00:23:55;3.20;;;1.77;;
2866;SDS011;1441;48.886;8.728;2023-04-15T00:26:20;3.80;;;1.80;;
2866;SDS011;1441;48.886;8.728;2023-04-15T00:28:46;12.50;;;2.07;;
2866;SDS011;1441;48.886;8.728;2023-04-15T00:31:12;1.83;;;1.73;;
2866;SDS011;1441;48.886;8.728;2023-04-15T00:33:38;4.07;;;1.80;;
2866;SDS011;1441;48.886;8.728;2023-04-15T00:36:05;2.80;;;1.70;;
2866;SDS011;1441;48.886;8.728;2023-04-15T00:38:31;4.73;;;1.80;;
2866;SDS011;1441;48.886;8.728;2023-04-15T00:40:57;1.60;;;1.50;;
2866;SDS011;1441;48.886;8.728;2023-04-15T00:43:23;3.27;;;1.93;;
2866;SDS011;1441;48.886;8.728;2023-04-15T00:45:50;2.60;;;1.87;;
2866;SDS011;1441;48.886;8.728;2023-04-15T00:48:17;5.20;;;2.00;;
2866;SDS011;1441;48.886;8.728;2023-04-15T00:50:43;2.33;;;1.97;;
2866;SDS011;1441;48.886;8.728;2023-04-15T00:53:09;4.50;;;1.80;;
2866;SDS011;1441;48.886;8.728;2023-04-15T00:55:35;4.57;;;1.63;;
2866;SDS011;1441;48.886;8.728;2023-04-15T00:58:01;3.80;;;1.37;;
2866;SDS011;1441;48.886;8.728;2023-04-15T01:00:27;2.90;;;1.73;;
2866;SDS011;1441;48.886;8.728;2023-04-15T01:02:53;5.10;;;1.67;;
2866;SDS011;1441;48.886;8.728;2023-04-15T01:05:18;2.60;;;1.80;;
2866;SDS011;1441;48.886;8.728;2023-04-15T01:07:44;2.07;;;1.57;;
2866;SDS011;1441;48.886;8.728;2023-04-15T01:10:11;4.13;;;1.40;;
2866;SDS011;1441;48.886;8.728;2023-04-15T01:12:37;1.67;;;1.27;;
2866;SDS011;1441;48.886;8.728;2023-04-15T01:15:03;4.00;;;1.30;;
2866;SDS011;1441;48.886;8.728;2023-04-15T01:17:29;4.97;;;1.47;;
2866;SDS011;1441;48.886;8.728;2023-04-15T01:19:55;4.93;;;2.00;;
2866;SDS011;1441;48.886;8.728;2023-04-15T01:22:24;3.70;;;1.40;;
2866;SDS011;1441;48.886;8.728;2023-04-15T01:24:58;4.03;;;1.60;;
2866;SDS011;1441;48.886;8.728;2023-04-15T01:27:30;1.93;;;1.30;;
2866;SDS011;1441;48.886;8.728;2023-04-15T01:29:56;1.70;;;1.33;;
2866;SDS011;1441;48.886;8.728;2023-04-15T01:32:22;4.70;;;1.63;;
2866;SDS011;1441;48.886;8.728;2023-04-15T01:34:48;3.03;;;1.80;;
2866;SDS011;1441;48.886;8.728;2023-04-15T01:37:13;4.37;;;2.83;;
2866;SDS011;1441;48.886;8.728;2023-04-15T01:39:39;4.23;;;2.67;;
2866;SDS011;1441;48.886;8.728;2023-04-15T01:42:05;2.80;;;2.43;;
2866;SDS011;1441;48.886;8.728;2023-04-15T01:44:30;4.23;;;1.73;;
2866;SDS011;1441;48.886;8.728;2023-04-15T01:46:56;2.57;;;1.70;;
2866;SDS011;1441;48.886;8.728;2023-04-15T01:49:22;4.10;;;1.57;;
2866;SDS011;1441;48.886;8.728;2023-04-15T01:51:48;2.37;;;1.30;;
2866;SDS011;1441;48.886;8.728;2023-04-15T01:54:13;5.03;;;2.20;;
2866;SDS011;1441;48.886;8.728;2023-04-15T01:56:39;3.03;;;1.43;;
2866;SDS011;1441;48.886;8.728;2023-04-15T01:59:04;3.10;;;1.53;;
2866;SDS011;1441;48.886;8.728;2023-04-15T02:01:30;2.90;;;1.50;;
2866;SDS011;1441;48.886;8.728;2023-04-15T02:03:55;2.10;;;1.67;;
2866;SDS011;1441;48.886;8.728;2023-04-15T02:06:21;5.03;;;1.57;;
2866;SDS011;1441;48.886;8.728;2023-04-15T02:08:47;2.30;;;1.63;;
2866;SDS011;1441;48.886;8.728;2023-04-15T02:11:13;2.27;;;1.70;;
2866;SDS011;1441;48.886;8.728;2023-04-15T02:13:39;3.10;;;1.77;;
2866;SDS011;1441;48.886;8.728;2023-04-15T02:16:13;3.17;;;2.23;;
2866;SDS011;1441;48.886;8.728;2023-04-15T02:18:40;5.17;;;2.07;;
2866;SDS011;1441;48.886;8.728;2023-04-15T02:21:06;2.10;;;1.70;;
2866;SDS011;1441;48.886;8.728;2023-04-15T02:23:32;3.33;;;1.73;;
2866;SDS011;1441;48.886;8.728;2023-04-15T02:25:58;1.67;;;1.37;;
2866;SDS011;1441;48.886;8.728;2023-04-15T02:28:24;3.10;;;1.90;;
2866;SDS011;1441;48.886;8.728;2023-04-15T02:30:49;3.83;;;2.00;;
2866;SDS011;1441;48.886;8.728;2023-04-15T02:33:16;1.83;;;1.53;;
2866;SDS011;1441;48.886;8.728;2023-04-15T02:35:42;8.93;;;1.90;;
2866;SDS011;1441;48.886;8.728;2023-04-15T02:38:09;2.93;;;1.77;;
2866;SDS011;1441;48.886;8.728;2023-04-15T02:40:35;1.70;;;1.60;;
2866;SDS011;1441;48.886;8.728;2023-04-15T02:43:01;2.70;;;1.60;;
2866;SDS011;1441;48.886;8.728;2023-04-15T02:45:27;2.73;;;1.70;;
2866;SDS011;1441;48.886;8.728;2023-04-15T02:47:53;3.63;;;2.10;;
2866;SDS011;1441;48.886;8.728;2023-04-15T02:50:18;1.90;;;1.50;;
2866;SDS011;1441;48.886;8.728;2023-04-15T02:52:44;10.73;;;2.50;;
2866;SDS011;1441;48.886;8.728;2023-04-15T02:55:10;3.23;;;1.77;;
2866;SDS011;1441;48.886;8.728;2023-04-15T02:57:36;4.60;;;2.07;;
2866;SDS011;1441;48.886;8.728;2023-04-15T03:00:03;3.50;;;1.83;;
2866;SDS011;1441;48.886;8.728;2023-04-15T03:02:33;4.03;;;1.67;;
2866;SDS011;1441;48.886;8.728;2023-04-15T03:04:59;3.07;;;1.90;;
2866;SDS011;1441;48.886;8.728;2023-04-15T03:07:25;3.50;;;1.73;;
2866;SDS011;1441;48.886;8.728;2023-04-15T03:09:51;3.10;;;1.77;;
2866;SDS011;1441;48.886;8.728;2023-04-15T03:12:16;6.50;;;1.80;;
2866;SDS011;1441;48.886;8.728;2023-04-15T03:14:42;3.23;;;1.50;;
2866;SDS011;1441;48.886;8.728;2023-04-15T03:17:07;2.90;;;2.17;;
2866;SDS011;1441;48.886;8.728;2023-04-15T03:19:33;3.17;;;1.60;;
2866;SDS011;1441;48.886;8.728;2023-04-15T03:21:58;3.00;;;1.60;;
2866;SDS011;1441;48.886;8.728;2023-04-15T03:24:24;2.60;;;1.50;;
2866;SDS011;1441;48.886;8.728;2023-04-15T03:26:51;5.77;;;2.40;;
2866;SDS011;1441;48.886;8.728;2023-04-15T03:29:16;5.53;;;1.60;;
2866;SDS011;1441;48.886;8.728;2023-04-15T03:31:42;3.60;;;1.73;;
2866;SDS011;1441;48.886;8.728;2023-04-15T03:34:07;2.77;;;1.47;;
2866;SDS011;1441;48.886;8.728;2023-04-15T03:36:33;2.83;;;1.70;;
2866;SDS011;1441;48.886;8.728;2023-04-15T03:38:58;6.00;;;1.50;;
2866;SDS011;1441;48.886;8.728;2023-04-15T03:41:26;4.37;;;2.03;;
2866;SDS011;1441;48.886;8.728;2023-04-15T03:43:52;1.30;;;1.20;;
2866;SDS011;1441;48.886;8.728;2023-04-15T03:46:17;4.63;;;1.90;;
2866;SDS011;1441;48.886;8.728;2023-04-15T03:48:43;3.43;;;1.60;;
2866;SDS011;1441;48.886;8.728;2023-04-15T03:51:09;6.33;;;2.27;;
2866;SDS011;1441;48.886;8.728;2023-04-15T03:53:34;2.50;;;2.30;;
2866;SDS011;1441;48.886;8.728;2023-04-15T03:56:00;2.30;;;1.97;;
2866;SDS011;1441;48.886;8.728;2023-04-15T03:58:26;2.10;;;1.70;;
2866;SDS011;1441;48.886;8.728;2023-04-15T04:00:52;2.20;;;1.67;;
2866;SDS011;1441;48.886;8.728;2023-04-15T04:03:18;4.00;;;1.93;;
2866;SDS011;1441;48.886;8.728;2023-04-15T04:05:44;5.40;;;1.70;;
2866;SDS011;1441;48.886;8.728;2023-04-15T04:08:10;7.10;;;1.60;;
2866;SDS011;1441;48.886;8.728;2023-04-15T04:10:37;6.93;;;1.50;;
2866;SDS011;1441;48.886;8.728;2023-04-15T04:13:03;4.00;;;1.90;;
2866;SDS011;1441;48.886;8.728;2023-04-15T04:15:29;7.53;;;1.57;;
2866;SDS011;1441;48.886;8.728;2023-04-15T04:17:55;1.60;;;1.00;;
2866;SDS011;1441;48.886;8.728;2023-04-15T04:20:20;1.23;;;1.00;;
2866;SDS011;1441;48.886;8.728;2023-04-15T04:22:46;2.13;;;1.50;;
2866;SDS011;1441;48.886;8.728;2023-04-15T04:25:12;2.10;;;0.90;;
2866;SDS011;1441;48.886;8.728;2023-04-15T04:27:37;7.00;;;1.60;;
2866;SDS011;1441;48.886;8.728;2023-04-15T04:30:03;3.80;;;1.40;;
2866;SDS011;1441;48.886;8.728;2023-04-15T04:32:30;4.97;;;1.40;;
2866;SDS011;1441;48.886;8.728;2023-04-15T04:34:56;2.73;;;1.37;;
2866;SDS011;1441;48.886;8.728;2023-04-15T04:37:21;4.73;;;1.10;;
2866;SDS011;1441;48.886;8.728;2023-04-15T04:39:48;2.60;;;1.10;;
2866;SDS011;1441;48.886;8.728;2023-04-15T04:42:14;1.57;;;1.10;;
2866;SDS011;1441;48.886;8.728;2023-04-15T04:44:40;3.90;;;1.03;;
2866;SDS011;1441;48.886;8.728;2023-04-15T04:47:05;3.17;;;1.10;;
2866;SDS011;1441;48.886;8.728;2023-04-15T04:49:31;3.57;;;1.33;;
2866;SDS011;1441;48.886;8.728;2023-04-15T04:51:57;3.73;;;0.87;;
2866;SDS011;1441;48.886;8.728;2023-04-15T04:54:23;6.13;;;1.30;;
2866;SDS011;1441;48.886;8.728;2023-04-15T04:56:48;1.07;;;1.07;;
2866;SDS011;1441;48.886;8.728;2023-04-15T04:59:14;2.20;;;1.20;;
2866;SDS011;1441;48.886;8.728;2023-04-15T05:01:39;1.40;;;1.23;;
2866;SDS011;1441;48.886;8.728;2023-04-15T05:04:05;4.13;;;1.53;;
2866;SDS011;1441;48.886;8.728;2023-04-15T05:06:31;3.83;;;1.50;;
2866;SDS011;1441;48.886;8.728;2023-04-15T05:08:57;1.90;;;1.70;;
2866;SDS011;1441;48.886;8.728;2023-04-15T05:11:23;1.53;;;1.23;;
2866;SDS011;1441;48.886;8.728;2023-04-15T05:13:48;2.20;;;1.70;;
2866;SDS011;1441;48.886;8.728;2023-04-15T05:16:14;4.10;;;2.00;;
2866;SDS011;1441;48.886;8.728;2023-04-15T05:18:40;4.27;;;1.90;;
2866;SDS011;1441;48.886;8.728;2023-04-15T05:21:06;7.57;;;1.67;;
2866;SDS011;1441;48.886;8.728;2023-04-15T05:23:31;2.97;;;1.63;;
2866;SDS011;1441;48.886;8.728;2023-04-15T05:25:57;4.20;;;2.07;;
2866;SDS011;1441;48.886;8.728;2023-04-15T05:28:23;3.77;;;1.80;;
2866;SDS011;1441;48.886;8.728;2023-04-15T05:30:48;7.13;;;2.00;;
2866;SDS011;1441;48.886;8.728;2023-04-15T05:33:14;6.17;;;2.47;;
2866;SDS011;1441;48.886;8.728;2023-04-15T05:35:40;2.90;;;2.30;;
2866;SDS011;1441;48.886;8.728;2023-04-15T05:38:05;4.00;;;3.57;;
2866;SDS011;1441;48.886;8.728;2023-04-15T05:40:31;7.10;;;2.30;;
2866;SDS011;1441;48.886;8.728;2023-04-15T05:42:56;4.33;;;2.30;;
2866;SDS011;1441;48.886;8.728;2023-04-15T05:45:22;3.90;;;2.57;;
2866;SDS011;1441;48.886;8.728;2023-04-15T05:47:47;2.40;;;1.90;;
2866;SDS011;1441;48.886;8.728;2023-04-15T05:50:18;3.20;;;1.90;;
2866;SDS011;1441;48.886;8.728;2023-04-15T05:52:44;8.47;;;3.87;;
2866;SDS011;1441;48.886;8.728;2023-04-15T05:55:10;4.37;;;2.10;;
2866;SDS011;1441;48.886;8.728;2023-04-15T05:57:36;3.80;;;1.83;;
2866;SDS011;1441;48.886;8.728;2023-04-15T06:00:02;2.30;;;1.93;;
2866;SDS011;1441;48.886;8.728;2023-04-15T06:02:29;2.57;;;2.03;;
2866;SDS011;1441;48.886;8.728;2023-04-15T06:04:55;4.77;;;2.17;;
2866;SDS011;1441;48.886;8.728;2023-04-15T06:07:21;5.23;;;2.07;;
2866;SDS011;1441;48.886;8.728;2023-04-15T06:09:50;3.17;;;1.93;;
2866;SDS011;1441;48.886;8.728;2023-04-15T06:12:16;6.70;;;2.23;;
2866;SDS011;1441;48.886;8.728;2023-04-15T06:14:41;2.50;;;2.07;;
2866;SDS011;1441;48.886;8.728;2023-04-15T06:17:07;2.53;;;2.30;;
2866;SDS011;1441;48.886;8.728;2023-04-15T06:19:33;4.90;;;2.80;;
2866;SDS011;1441;48.886;8.728;2023-04-15T06:21:59;2.63;;;1.73;;
2866;SDS011;1441;48.886;8.728;2023-04-15T06:24:25;4.07;;;2.40;;
2866;SDS011;1441;48.886;8.728;2023-04-15T06:26:51;1.83;;;1.73;;
2866;SDS011;1441;48.886;8.728;2023-04-15T06:29:16;3.80;;;2.50;;
2866;SDS011;1441;48.886;8.728;2023-04-15T06:31:42;3.50;;;2.23;;
2866;SDS011;1441;48.886;8.728;2023-04-15T06:34:07;2.87;;;2.30;;
2866;SDS011;1441;48.886;8.728;2023-04-15T06:36:33;3.00;;;2.07;;
2866;SDS011;1441;48.886;8.728;2023-04-15T06:38:58;2.97;;;2.50;;
2866;SDS011;1441;48.886;8.728;2023-04-15T06:41:25;2.93;;;2.40;;
2866;SDS011;1441;48.886;8.728;2023-04-15T06:43:50;2.47;;;2.13;;
2866;SDS011;1441;48.886;8.728;2023-04-15T06:46:16;6.20;;;2.47;;
2866;SDS011;1441;48.886;8.728;2023-04-15T06:48:42;4.73;;;2.60;;
2866;SDS011;1441;48.886;8.728;2023-04-15T06:51:08;5.43;;;2.73;;
2866;SDS011;1441;48.886;8.728;2023-04-15T06:53:33;3.43;;;2.57;;
2866;SDS011;1441;48.886;8.728;2023-04-15T06:56:04;4.63;;;2.30;;
2866;SDS011;1441;48.886;8.728;2023-04-15T06:58:31;4.27;;;3.20;;
2866;SDS011;1441;48.886;8.728;2023-04-15T07:00:57;5.27;;;2.60;;
2866;SDS011;1441;48.886;8.728;2023-04-15T07:03:23;5.03;;;2.80;;
2866;SDS011;1441;48.886;8.728;2023-04-15T07:05:48;3.30;;;2.37;;
2866;SDS011;1441;48.886;8.728;2023-04-15T07:08:14;2.27;;;2.00;;
2866;SDS011;1441;48.886;8.728;2023-04-15T07:10:39;3.73;;;2.57;;
2866;SDS011;1441;48.886;8.728;2023-04-15T07:13:05;2.63;;;1.80;;
2866;SDS011;1441;48.886;8.728;2023-04-15T07:15:32;4.87;;;2.30;;
2866;SDS011;1441;48.886;8.728;2023-04-15T07:17:58;4.63;;;1.80;;
2866;SDS011;1441;48.886;8.728;2023-04-15T07:20:23;4.40;;;2.03;;
2866;SDS011;1441;48.886;8.728;2023-04-15T07:22:49;5.00;;;2.00;;
2866;SDS011;1441;48.886;8.728;2023-04-15T07:25:15;1.83;;;1.60;;
2866;SDS011;1441;48.886;8.728;2023-04-15T07:27:41;2.83;;;1.50;;
2866;SDS011;1441;48.886;8.728;2023-04-15T07:30:07;4.50;;;1.70;;
2866;SDS011;1441;48.886;8.728;2023-04-15T07:32:33;1.47;;;1.37;;
2866;SDS011;1441;48.886;8.728;2023-04-15T07:34:59;3.53;;;1.70;;
2866;SDS011;1441;48.886;8.728;2023-04-15T07:37:26;3.10;;;1.60;;
2866;SDS011;1441;48.886;8.728;2023-04-15T07:39:52;3.50;;;1.20;;
2866;SDS011;1441;48.886;8.728;2023-04-15T07:42:18;4.43;;;1.30;;
2866;SDS011;1441;48.886;8.728;2023-04-15T07:44:43;3.43;;;1.50;;
2866;SDS011;1441;48.886;8.728;2023-04-15T07:47:09;1.40;;;1.10;;
2866;SDS011;1441;48.886;8.728;2023-04-15T07:49:36;2.30;;;1.43;;
2866;SDS011;1441;48.886;8.728;2023-04-15T07:52:01;2.60;;;1.13;;
2866;SDS011;1441;48.886;8.728;2023-04-15T07:54:27;2.70;;;1.73;;
2866;SDS011;1441;48.886;8.728;2023-04-15T07:56:53;3.03;;;1.20;;
2866;SDS011;1441;48.886;8.728;2023-04-15T07:59:19;2.23;;;1.30;;
2866;SDS011;1441;48.886;8.728;2023-04-15T08:01:44;1.87;;;1.50;;
2866;SDS011;1441;48.886;8.728;2023-04-15T08:04:10;3.60;;;1.80;;
2866;SDS011;1441;48.886;8.728;2023-04-15T08:06:36;2.13;;;1.67;;
2866;SDS011;1441;48.886;8.728;2023-04-15T08:09:03;3.70;;;1.50;;
2866;SDS011;1441;48.886;8.728;2023-04-15T08:11:30;3.80;;;1.77;;
2866;SDS011;1441;48.886;8.728;2023-04-15T08:13:55;4.93;;;1.93;;
2866;SDS011;1441;48.886;8.728;2023-04-15T08:16:24;2.20;;;1.67;;
2866;SDS011;1441;48.886;8.728;2023-04-15T08:18:52;2.93;;;1.80;;
2866;SDS011;1441;48.886;8.728;2023-04-15T08:21:19;2.93;;;1.80;;
2866;SDS011;1441;48.886;8.728;2023-04-15T08:23:45;13.27;;;2.20;;
2866;SDS011;1441;48.886;8.728;2023-04-15T08:26:13;8.10;;;1.70;;
2866;SDS011;1441;48.886;8.728;2023-04-15T08:28:39;3.60;;;2.17;;
2866;SDS011;1441;48.886;8.728;2023-04-15T08:31:05;3.47;;;1.70;;
2866;SDS011;1441;48.886;8.728;2023-04-15T08:33:32;2.70;;;1.50;;
2866;SDS011;1441;48.886;8.728;2023-04-15T08:35:58;3.80;;;1.60;;
2866;SDS011;1441;48.886;8.728;2023-04-15T08:38:23;3.47;;;1.87;;
2866;SDS011;1441;48.886;8.728;2023-04-15T08:40:49;5.60;;;1.80;;
2866;SDS011;1441;48.886;8.728;2023-04-15T08:43:22;2.30;;;1.40;;
2866;SDS011;1441;48.886;8.728;2023-04-15T08:45:57;7.57;;;1.70;;
2866;SDS011;1441;48.886;8.728;2023-04-15T08:48:26;2.50;;;1.40;;
2866;SDS011;1441;48.886;8.728;2023-04-15T08:50:53;3.63;;;1.90;;
2866;SDS011;1441;48.886;8.728;2023-04-15T08:53:19;2.03;;;1.47;;
2866;SDS011;1441;48.886;8.728;2023-04-15T08:55:45;3.00;;;1.57;;
2866;SDS011;1441;48.886;8.728;2023-04-15T08:58:15;4.00;;;2.00;;
2866;SDS011;1441;48.886;8.728;2023-04-15T09:00:42;2.17;;;1.30;;
2866;SDS011;1441;48.886;8.728;2023-04-15T09:03:07;2.00;;;1.40;;
2866;SDS011;1441;48.886;8.728;2023-04-15T09:05:36;2.83;;;1.67;;
2866;SDS011;1441;48.886;8.728;2023-04-15T09:08:02;3.43;;;1.47;;
2866;SDS011;1441;48.886;8.728;2023-04-15T09:10:29;3.60;;;1.40;;
2866;SDS011;1441;48.886;8.728;2023-04-15T09:12:56;47.47;;;4.53;;
2866;SDS011;1441;48.886;8.728;2023-04-15T09:15:25;12.30;;;2.30;;
2866;SDS011;1441;48.886;8.728;2023-04-15T09:17:54;3.97;;;1.40;;
2866;SDS011;1441;48.886;8.728;2023-04-15T09:20:20;5.87;;;1.70;;
2866;SDS011;1441;48.886;8.728;2023-04-15T09:22:47;6.40;;;1.97;;
2866;SDS011;1441;48.886;8.728;2023-04-15T09:27:49;2.33;;;1.43;;
2866;SDS011;1441;48.886;8.728;2023-04-15T09:30:19;1.83;;;1.10;;
2866;SDS011;1441;48.886;8.728;2023-04-15T09:32:57;10.43;;;1.20;;
2866;SDS011;1441;48.886;8.728;2023-04-15T09:35:25;16.37;;;2.53;;
2866;SDS011;1441;48.886;8.728;2023-04-15T09:37:52;4.93;;;1.80;;
2866;SDS011;1441;48.886;8.728;2023-04-15T09:40:39;4.30;;;1.53;;
2866;SDS011;1441;48.886;8.728;2023-04-15T09:43:05;4.73;;;1.17;;
2866;SDS011;1441;48.886;8.728;2023-04-15T09:45:33;2.00;;;1.17;;
2866;SDS011;1441;48.886;8.728;2023-04-15T09:48:21;6.67;;;1.53;;
2866;SDS011;1441;48.886;8.728;2023-04-15T09:50:47;1.43;;;1.33;;
2866;SDS011;1441;48.886;8.728;2023-04-15T09:53:17;3.63;;;2.03;;
2866;SDS011;1441;48.886;8.728;2023-04-15T09:55:44;1.03;;;1.03;;
2866;SDS011;1441;48.886;8.728;2023-04-15T09:58:23;4.73;;;1.67;;
2866;SDS011;1441;48.886;8.728;2023-04-15T10:00:50;3.00;;;1.33;;
2866;SDS011;1441;48.886;8.728;2023-04-15T10:03:21;3.00;;;1.47;;
2866;SDS011;1441;48.886;8.728;2023-04-15T10:05:49;1.23;;;1.07;;
2866;SDS011;1441;48.886;8.728;2023-04-15T10:08:16;1.83;;;1.60;;
2866;SDS011;1441;48.886;8.728;2023-04-15T10:10:46;3.73;;;1.40;;
2866;SDS011;1441;48.886;8.728;2023-04-15T10:13:13;6.67;;;1.40;;
2866;SDS011;1441;48.886;8.728;2023-04-15T10:15:42;1.47;;;1.37;;
2866;SDS011;1441;48.886;8.728;2023-04-15T10:18:16;3.53;;;1.63;;
2866;SDS011;1441;48.886;8.728;2023-04-15T10:20:45;2.17;;;1.80;;
2866;SDS011;1441;48.886;8.728;2023-04-15T10:23:11;5.60;;;1.60;;
2866;SDS011;1441;48.886;8.728;2023-04-15T10:25:38;5.20;;;1.70;;
2866;SDS011;1441;48.886;8.728;2023-04-15T10:28:05;2.43;;;1.60;;
2866;SDS011;1441;48.886;8.728;2023-04-15T10:30:31;3.93;;;1.80;;
2866;SDS011;1441;48.886;8.728;2023-04-15T10:32:58;5.93;;;2.60;;
2866;SDS011;1441;48.886;8.728;2023-04-15T10:35:28;4.83;;;1.67;;
2866;SDS011;1441;48.886;8.728;2023-04-15T10:37:55;3.90;;;1.70;;
2866;SDS011;1441;48.886;8.728;2023-04-15T10:42:50;2.93;;;2.13;;
2866;SDS011;1441;48.886;8.728;2023-04-15T10:45:15;3.50;;;1.77;;
2866;SDS011;1441;48.886;8.728;2023-04-15T10:47:45;1.63;;;1.37;;
2866;SDS011;1441;48.886;8.728;2023-04-15T10:50:15;3.87;;;1.30;;
2866;SDS011;1441;48.886;8.728;2023-04-15T10:52:43;3.70;;;1.93;;
2866;SDS011;1441;48.886;8.728;2023-04-15T10:57:39;4.77;;;2.20;;
2866;SDS011;1441;48.886;8.728;2023-04-15T11:02:39;4.33;;;2.30;;
2866;SDS011;1441;48.886;8.728;2023-04-15T11:05:09;5.20;;;1.80;;
2866;SDS011;1441;48.886;8.728;2023-04-15T11:07:39;3.23;;;2.10;;
2866;SDS011;1441;48.886;8.728;2023-04-15T11:10:49;7.73;;;2.50;;
2866;SDS011;1441;48.886;8.728;2023-04-15T11:15:38;3.80;;;2.40;;
2866;SDS011;1441;48.886;8.728;2023-04-15T11:18:15;4.10;;;2.17;;
2866;SDS011;1441;48.886;8.728;2023-04-15T11:20:52;5.80;;;2.90;;
2866;SDS011;1441;48.886;8.728;2023-04-15T11:23:33;8.40;;;2.67;;
2866;SDS011;1441;48.886;8.728;2023-04-15T11:26:10;3.00;;;2.57;;
2866;SDS011;1441;48.886;8.728;2023-04-15T11:28:37;5.20;;;2.90;;
2866;SDS011;1441;48.886;8.728;2023-04-15T11:31:08;4.07;;;3.00;;
2866;SDS011;1441;48.886;8.728;2023-04-15T11:33:37;4.87;;;2.90;;
2866;SDS011;1441;48.886;8.728;2023-04-15T11:36:08;6.60;;;3.43;;
2866;SDS011;1441;48.886;8.728;2023-04-15T11:38:34;6.40;;;3.13;;
2866;SDS011;1441;48.886;8.728;2023-04-15T11:41:01;7.70;;;3.47;;
2866;SDS011;1441;48.886;8.728;2023-04-15T11:43:27;4.50;;;4.10;;
2866;SDS011;1441;48.886;8.728;2023-04-15T11:45:57;5.17;;;3.37;;
2866;SDS011;1441;48.886;8.728;2023-04-15T11:48:25;6.73;;;2.40;;
2866;SDS011;1441;48.886;8.728;2023-04-15T11:56:10;10.53;;;2.60;;
2866;SDS011;1441;48.886;8.728;2023-04-15T11:58:45;5.03;;;2.80;;
2866;SDS011;1441;48.886;8.728;2023-04-15T12:01:11;10.20;;;3.10;;
2866;SDS011;1441;48.886;8.728;2023-04-15T12:03:38;5.20;;;2.90;;
2866;SDS011;1441;48.886;8.728;2023-04-15T12:06:21;4.13;;;2.47;;
2866;SDS011;1441;48.886;8.728;2023-04-15T12:11:17;5.43;;;3.80;;
2866;SDS011;1441;48.886;8.728;2023-04-15T12:13:47;7.97;;;3.97;;
2866;SDS011;1441;48.886;8.728;2023-04-15T12:16:17;6.80;;;3.83;;
2866;SDS011;1441;48.886;8.728;2023-04-15T12:18:46;4.27;;;3.87;;
2866;SDS011;1441;48.886;8.728;2023-04-15T12:21:14;5.87;;;3.80;;
2866;SDS011;1441;48.886;8.728;2023-04-15T12:23:47;6.17;;;3.90;;
2866;SDS011;1441;48.886;8.728;2023-04-15T12:26:17;4.30;;;3.80;;
2866;SDS011;1441;48.886;8.728;2023-04-15T12:28:49;4.73;;;3.60;;
2866;SDS011;1441;48.886;8.728;2023-04-15T12:31:21;8.53;;;3.73;;
2866;SDS011;1441;48.886;8.728;2023-04-15T12:33:47;6.10;;;3.67;;
2866;SDS011;1441;48.886;8.728;2023-04-15T12:36:13;6.07;;;4.00;;
2866;SDS011;1441;48.886;8.728;2023-04-15T12:38:39;8.73;;;3.77;;
2866;SDS011;1441;48.886;8.728;2023-04-15T12:41:05;5.33;;;3.43;;
2866;SDS011;1441;48.886;8.728;2023-04-15T12:43:30;4.63;;;2.80;;
2866;SDS011;1441;48.886;8.728;2023-04-15T12:45:56;4.30;;;2.97;;
2866;SDS011;1441;48.886;8.728;2023-04-15T12:48:22;4.23;;;2.47;;
2866;SDS011;1441;48.886;8.728;2023-04-15T12:50:47;5.20;;;3.00;;
2866;SDS011;1441;48.886;8.728;2023-04-15T12:53:13;4.23;;;3.37;;
2866;SDS011;1441;48.886;8.728;2023-04-15T12:55:38;4.00;;;3.60;;
2866;SDS011;1441;48.886;8.728;2023-04-15T12:58:04;4.63;;;2.30;;
2866;SDS011;1441;48.886;8.728;2023-04-15T13:00:29;4.07;;;3.63;;
2866;SDS011;1441;48.886;8.728;2023-04-15T13:02:58;3.80;;;3.40;;
2866;SDS011;1441;48.886;8.728;2023-04-15T13:05:24;4.77;;;3.40;;
2866;SDS011;1441;48.886;8.728;2023-04-15T13:07:49;3.10;;;2.90;;
2866;SDS011;1441;48.886;8.728;2023-04-15T13:10:15;4.30;;;3.17;;
2866;SDS011;1441;48.886;8.728;2023-04-15T13:12:41;5.20;;;2.90;;
2866;SDS011;1441;48.886;8.728;2023-04-15T13:15:06;4.17;;;3.60;;
2866;SDS011;1441;48.886;8.728;2023-04-15T13:17:35;3.17;;;2.53;;
2866;SDS011;1441;48.886;8.728;2023-04-15T13:20:00;4.13;;;2.13;;
2866;SDS011;1441;48.886;8.728;2023-04-15T13:22:26;2.63;;;2.40;;
2866;SDS011;1441;48.886;8.728;2023-04-15T13:24:51;3.47;;;2.20;;
2866;SDS011;1441;48.886;8.728;2023-04-15T13:27:17;2.60;;;2.40;;
2866;SDS011;1441;48.886;8.728;2023-04-15T13:29:42;2.77;;;2.40;;
2866;SDS011;1441;48.886;8.728;2023-04-15T13:32:08;2.70;;;2.10;;
2866;SDS011;1441;48.886;8.728;2023-04-15T13:34:34;2.60;;;2.40;;
2866;SDS011;1441;48.886;8.728;2023-04-15T13:37:04;4.00;;;2.37;;
2866;SDS011;1441;48.886;8.728;2023-04-15T13:39:31;3.63;;;1.93;;
2866;SDS011;1441;48.886;8.728;2023-04-15T13:41:56;1.80;;;1.70;;
2866;SDS011;1441;48.886;8.728;2023-04-15T13:44:22;3.07;;;2.27;;
2866;SDS011;1441;48.886;8.728;2023-04-15T13:46:48;1.87;;;1.60;;
2866;SDS011;1441;48.886;8.728;2023-04-15T13:49:13;3.07;;;1.40;;
2866;SDS011;1441;48.886;8.728;2023-04-15T13:51:39;2.40;;;2.07;;
2866;SDS011;1441;48.886;8.728;2023-04-15T13:54:04;4.73;;;2.17;;
2866;SDS011;1441;48.886;8.728;2023-04-15T13:56:30;2.00;;;1.90;;
2866;SDS011;1441;48.886;8.728;2023-04-15T13:58:56;2.83;;;1.80;;
2866;SDS011;1441;48.886;8.728;2023-04-15T14:01:23;1.50;;;1.40;;
2866;SDS011;1441;48.886;8.728;2023-04-15T14:03:49;4.00;;;1.37;;
2866;SDS011;1441;48.886;8.728;2023-04-15T14:06:15;3.80;;;2.10;;
2866;SDS011;1441;48.886;8.728;2023-04-15T14:08:41;5.47;;;2.13;;
2866;SDS011;1441;48.886;8.728;2023-04-15T14:11:06;8.07;;;3.40;;
2866;SDS011;1441;48.886;8.728;2023-04-15T14:13:32;4.27;;;2.97;;
2866;SDS011;1441;48.886;8.728;2023-04-15T14:15:58;2.90;;;2.60;;
2866;SDS011;1441;48.886;8.728;2023-04-15T14:18:24;2.30;;;2.10;;
2866;SDS011;1441;48.886;8.728;2023-04-15T14:20:49;2.10;;;2.00;;
2866;SDS011;1441;48.886;8.728;2023-04-15T14:23:15;3.20;;;2.20;;
2866;SDS011;1441;48.886;8.728;2023-04-15T14:25:41;3.83;;;2.00;;
2866;SDS011;1441;48.886;8.728;2023-04-15T14:28:06;8.67;;;2.00;;
2866;SDS011;1441;48.886;8.728;2023-04-15T14:30:32;6.83;;;1.80;;
2866;SDS011;1441;48.886;8.728;2023-04-15T14:32:57;5.50;;;2.63;;
2866;SDS011;1441;48.886;8.728;2023-04-15T14:35:23;7.00;;;2.30;;
2866;SDS011;1441;48.886;8.728;2023-04-15T14:37:51;2.93;;;1.87;;
2866;SDS011;1441;48.886;8.728;2023-04-15T14:40:17;3.33;;;2.17;;
2866;SDS011;1441;48.886;8.728;2023-04-15T14:42:43;1.87;;;1.60;;
2866;SDS011;1441;48.886;8.728;2023-04-15T14:45:09;2.10;;;1.90;;
2866;SDS011;1441;48.886;8.728;2023-04-15T14:47:35;3.60;;;2.03;;
2866;SDS011;1441;48.886;8.728;2023-04-15T14:50:00;2.33;;;1.87;;
2866;SDS011;1441;48.886;8.728;2023-04-15T14:52:26;5.90;;;2.17;;
2866;SDS011;1441;48.886;8.728;2023-04-15T14:54:52;2.37;;;2.03;;
2866;SDS011;1441;48.886;8.728;2023-04-15T14:57:17;2.40;;;1.60;;
2866;SDS011;1441;48.886;8.728;2023-04-15T14:59:43;2.17;;;1.77;;
2866;SDS011;1441;48.886;8.728;2023-04-15T15:02:08;2.10;;;1.50;;
2866;SDS011;1441;48.886;8.728;2023-04-15T15:04:34;3.40;;;1.60;;
2866;SDS011;1441;48.886;8.728;2023-04-15T15:07:00;5.47;;;1.63;;
2866;SDS011;1441;48.886;8.728;2023-04-15T15:09:25;3.30;;;1.47;;
2866;SDS011;1441;48.886;8.728;2023-04-15T15:11:51;3.30;;;1.97;;
2866;SDS011;1441;48.886;8.728;2023-04-15T15:14:16;2.40;;;1.57;;
2866;SDS011;1441;48.886;8.728;2023-04-15T15:16:42;1.50;;;1.40;;
2866;SDS011;1441;48.886;8.728;2023-04-15T15:19:08;2.50;;;1.40;;
2866;SDS011;1441;48.886;8.728;2023-04-15T15:21:33;2.13;;;1.40;;
2866;SDS011;1441;48.886;8.728;2023-04-15T15:23:59;1.67;;;1.27;;
2866;SDS011;1441;48.886;8.728;2023-04-15T15:26:24;2.40;;;1.20;;
2866;SDS011;1441;48.886;8.728;2023-04-15T15:28:52;1.70;;;1.07;;
2866;SDS011;1441;48.886;8.728;2023-04-15T15:31:17;2.60;;;1.43;;
2866;SDS011;1441;48.886;8.728;2023-04-15T15:33:43;3.07;;;1.70;;